Funseeker — SVA7628 — position and weather

sailwx.info

Track history (hours):
 
Tides and Currents Weather Stations Pressure Air Temp Water Temp Dewpoint Dewpoint Depression Visibility Wind Speed Wind Dir Waves Ship Positions

Funseeker

Last reported at 2017-Sep-22 01:54 UTC. Time now 2017-Sep-22 02:39 UTC.
Position N 37°28' E 025°19'.

Length 16 m.

Type: Pleasure craft. MMSI: 239999300.

Date/timePositionNaut miles runAvg speedWind from/ knotsBaromVisibWave heightAir tempDewpointWater temp
2017-Sep-22 01:54N 37°28' E 025°19'0 0.0
2017-Sep-22 01:30N 37°28' E 025°19'0 0.0
2017-Sep-22 00:57N 37°28' E 025°19'0 0.0
2017-Sep-22 00:30N 37°28' E 025°19'0 0.0
2017-Sep-21 23:57N 37°28' E 025°19'0 0.0
2017-Sep-21 23:30N 37°28' E 025°19'0 0.0
2017-Sep-21 23:00N 37°28' E 025°19'0 0.0
2017-Sep-21 22:27N 37°28' E 025°19'0 0.0
2017-Sep-21 21:57N 37°28' E 025°19'0 0.0
2017-Sep-21 21:27N 37°28' E 025°19'0 0.0
2017-Sep-21 21:00N 37°28' E 025°19'0 0.0
2017-Sep-21 20:30N 37°28' E 025°19'0 0.0
2017-Sep-21 19:57N 37°28' E 025°19'0 0.0
2017-Sep-21 19:27N 37°28' E 025°19'0 0.0
2017-Sep-21 19:00N 37°28' E 025°19'0 0.0
2017-Sep-21 18:30N 37°28' E 025°19'0 0.0
2017-Sep-21 18:00N 37°28' E 025°19'0 0.0
2017-Sep-21 17:27N 37°28' E 025°19'0 0.0
2017-Sep-21 16:57N 37°28' E 025°19'0 0.0
2017-Sep-21 16:30N 37°28' E 025°19'0 0.0
2017-Sep-21 16:00N 37°28' E 025°19'0 0.0
2017-Sep-21 15:30N 37°28' E 025°19'0 0.0
2017-Sep-21 15:00N 37°28' E 025°19'0 0.0
2017-Sep-21 14:27N 37°28' E 025°19'0 0.0
2017-Sep-21 14:00N 37°28' E 025°19'0 0.0
2017-Sep-21 13:30N 37°28' E 025°19'0 0.0
2017-Sep-21 12:54N 37°28' E 025°19'0 0.0
2017-Sep-21 12:09N 37°28' E 025°19'0 0.0
2017-Sep-21 11:57N 37°28' E 025°19'0 0.0
2017-Sep-21 11:30N 37°28' E 025°19'0 0.0
2017-Sep-21 11:00N 37°28' E 025°19'0 0.0
2017-Sep-21 10:30N 37°28' E 025°19'0 0.0
2017-Sep-21 09:57N 37°28' E 025°19'0 0.0
2017-Sep-19 18:13N 37°28' E 025°19'0 0.0
2017-Sep-19 16:10N 37°28' E 025°19'0 0.0
2017-Sep-19 15:58N 37°28' E 025°19'2 1.6
2017-Sep-19 14:40N 37°29' E 025°18'320.2
2017-Sep-19 14:30N 37°28' E 025°14'3 4.5
2017-Sep-19 13:50N 37°25' E 025°13'2 0.5
2017-Sep-19 10:24N 37°26' E 025°14'3 8.1
2017-Sep-19 10:00N 37°27' E 025°18'1 2.4
2017-Sep-19 09:24N 37°28' E 025°19'0 0.0
2017-Sep-18 00:12N 37°28' E 025°19'0 0.0
2017-Sep-18 00:00N 37°28' E 025°19'0 0.0
2017-Sep-17 23:30N 37°28' E 025°19'0 0.0
2017-Sep-17 23:00N 37°28' E 025°19'0 0.0
2017-Sep-17 21:48N 37°28' E 025°19'0 0.0
2017-Sep-17 20:12N 37°28' E 025°19'0 0.0
2017-Sep-17 18:18N 37°28' E 025°19'0 0.0
2017-Sep-17 17:57N 37°28' E 025°19'0 0.0
2017-Sep-17 17:24N 37°28' E 025°19'0 0.0
2017-Sep-17 16:42N 37°28' E 025°19'0 1.5
2017-Sep-17 16:26N 37°28' E 025°20'3 6.9
2017-Sep-17 15:59N 37°25' E 025°20'3 7.0
2017-Sep-17 15:30N 37°22' E 025°23'2019.2
2017-Sep-17 14:27N 37°05' E 025°36'16 2.3
2017-Sep-17 07:17N 36°60' E 025°17'622.7
2017-Sep-17 07:00N 37°06' E 025°18'1121.5
2017-Sep-17 06:30N 37°17' E 025°17'  
2017-Sep-12 17:14N 37°28' E 025°19'0 1.5
2017-Sep-12 17:00N 37°28' E 025°20'2 4.0
2017-Sep-12 16:30N 37°27' E 025°17'3 5.8
2017-Sep-12 15:59N 37°25' E 025°14'  
Track history (hours):
 
Tides and Currents Weather Stations Pressure Air Temp Water Temp Dewpoint Dewpoint Depression Visibility Wind Speed Wind Dir Waves Ship Positions

Funseeker

Last reported at 2017-Sep-22 01:54 UTC. Time now 2017-Sep-22 02:39 UTC.
Position N 37°28' E 025°19'.

Length 16 m.

Type: Pleasure craft. MMSI: 239999300.

Date/timePositionNaut miles runAvg speedWind from/ knotsBaromVisibWave heightAir tempDewpointWater temp
2017-Sep-22 01:54N 37°28' E 025°19'0 0.0
2017-Sep-22 01:30N 37°28' E 025°19'0 0.0
2017-Sep-22 00:57N 37°28' E 025°19'0 0.0
2017-Sep-22 00:30N 37°28' E 025°19'0 0.0
2017-Sep-21 23:57N 37°28' E 025°19'0 0.0
2017-Sep-21 23:30N 37°28' E 025°19'0 0.0
2017-Sep-21 23:00N 37°28' E 025°19'0 0.0
2017-Sep-21 22:27N 37°28' E 025°19'0 0.0
2017-Sep-21 21:57N 37°28' E 025°19'0 0.0
2017-Sep-21 21:27N 37°28' E 025°19'0 0.0
2017-Sep-21 21:00N 37°28' E 025°19'0 0.0
2017-Sep-21 20:30N 37°28' E 025°19'0 0.0
2017-Sep-21 19:57N 37°28' E 025°19'0 0.0
2017-Sep-21 19:27N 37°28' E 025°19'0 0.0
2017-Sep-21 19:00N 37°28' E 025°19'0 0.0
2017-Sep-21 18:30N 37°28' E 025°19'0 0.0
2017-Sep-21 18:00N 37°28' E 025°19'0 0.0
2017-Sep-21 17:27N 37°28' E 025°19'0 0.0
2017-Sep-21 16:57N 37°28' E 025°19'0 0.0
2017-Sep-21 16:30N 37°28' E 025°19'0 0.0
2017-Sep-21 16:00N 37°28' E 025°19'0 0.0
2017-Sep-21 15:30N 37°28' E 025°19'0 0.0
2017-Sep-21 15:00N 37°28' E 025°19'0 0.0
2017-Sep-21 14:27N 37°28' E 025°19'0 0.0
2017-Sep-21 14:00N 37°28' E 025°19'0 0.0
2017-Sep-21 13:30N 37°28' E 025°19'0 0.0
2017-Sep-21 12:54N 37°28' E 025°19'0 0.0
2017-Sep-21 12:09N 37°28' E 025°19'0 0.0
2017-Sep-21 11:57N 37°28' E 025°19'0 0.0
2017-Sep-21 11:30N 37°28' E 025°19'0 0.0
2017-Sep-21 11:00N 37°28' E 025°19'0 0.0
2017-Sep-21 10:30N 37°28' E 025°19'0 0.0
2017-Sep-21 09:57N 37°28' E 025°19'0 0.0
2017-Sep-19 18:13N 37°28' E 025°19'0 0.0
2017-Sep-19 16:10N 37°28' E 025°19'0 0.0
2017-Sep-19 15:58N 37°28' E 025°19'2 1.6
2017-Sep-19 14:40N 37°29' E 025°18'320.2
2017-Sep-19 14:30N 37°28' E 025°14'3 4.5
2017-Sep-19 13:50N 37°25' E 025°13'2 0.5
2017-Sep-19 10:24N 37°26' E 025°14'3 8.1
2017-Sep-19 10:00N 37°27' E 025°18'1 2.4
2017-Sep-19 09:24N 37°28' E 025°19'0 0.0
2017-Sep-18 00:12N 37°28' E 025°19'0 0.0
2017-Sep-18 00:00N 37°28' E 025°19'0 0.0
2017-Sep-17 23:30N 37°28' E 025°19'0 0.0
2017-Sep-17 23:00N 37°28' E 025°19'0 0.0
2017-Sep-17 21:48N 37°28' E 025°19'0 0.0
2017-Sep-17 20:12N 37°28' E 025°19'0 0.0
2017-Sep-17 18:18N 37°28' E 025°19'0 0.0
2017-Sep-17 17:57N 37°28' E 025°19'0 0.0
2017-Sep-17 17:24N 37°28' E 025°19'0 0.0
2017-Sep-17 16:42N 37°28' E 025°19'0 1.5
2017-Sep-17 16:26N 37°28' E 025°20'3 6.9
2017-Sep-17 15:59N 37°25' E 025°20'3 7.0
2017-Sep-17 15:30N 37°22' E 025°23'2019.2
2017-Sep-17 14:27N 37°05' E 025°36'16 2.3
2017-Sep-17 07:17N 36°60' E 025°17'622.7
2017-Sep-17 07:00N 37°06' E 025°18'1121.5
2017-Sep-17 06:30N 37°17' E 025°17'  
2017-Sep-12 17:14N 37°28' E 025°19'0 1.5
2017-Sep-12 17:00N 37°28' E 025°20'2 4.0
2017-Sep-12 16:30N 37°27' E 025°17'3 5.8
2017-Sep-12 15:59N 37°25' E 025°14'  

Dump ship's entire track history